createdAt,value
2023-04-11T00:01:15.375Z,92744.91
2023-04-11T00:02:47.914Z,92744.91
2023-04-11T00:04:21.140Z,92739.56
2023-04-11T00:05:52.899Z,92732.91
2023-04-11T00:07:24.686Z,92740.34
2023-04-11T00:08:57.187Z,92740.56
2023-04-11T00:10:29.074Z,92737.31
2023-04-11T00:12:02.092Z,92739.44
2023-04-11T00:13:34.849Z,92734.09
2023-04-11T00:15:08.162Z,92732.69
2023-04-11T00:16:39.991Z,92735.38
2023-04-11T00:18:12.796Z,92732.91
2023-04-11T00:19:46.604Z,92728.66
2023-04-11T00:21:18.305Z,92730.75
2023-04-11T00:22:51.104Z,92728.59
2023-04-11T00:24:23.004Z,92726.22
2023-04-11T00:25:54.905Z,92729.09
2023-04-11T00:27:26.677Z,92727.50
2023-04-11T00:28:58.482Z,92729.69
2023-04-11T00:30:30.984Z,92722.16
2023-04-11T00:32:03.684Z,92718.91
2023-04-11T00:33:36.089Z,92715.94
2023-04-11T00:35:08.985Z,92714.00
2023-04-11T00:36:42.500Z,92709.94
2023-04-11T00:38:14.303Z,92709.38
2023-04-11T00:39:45.864Z,92711.75
2023-04-11T00:41:17.595Z,92706.91
2023-04-11T00:42:49.742Z,92708.50
2023-04-11T00:44:22.442Z,92707.72
2023-04-11T00:45:54.311Z,92701.47
2023-04-11T00:47:25.936Z,92704.47
2023-04-11T00:48:58.090Z,92706.81
2023-04-11T00:50:30.260Z,92703.56
2023-04-11T00:52:02.079Z,92705.16
2023-04-11T00:53:34.719Z,92702.50
2023-04-11T00:55:09.580Z,92704.88
2023-04-11T00:56:42.466Z,92709.13
2023-04-11T00:58:14.071Z,92702.19
2023-04-11T00:59:48.449Z,92712.91
2023-04-11T01:01:25.340Z,92710.22
2023-04-11T01:02:57.791Z,92707.50
2023-04-11T01:04:32.974Z,92711.28
2023-04-11T01:06:06.513Z,92713.16
2023-04-11T01:07:38.231Z,92718.50
2023-04-11T01:09:09.857Z,92715.53
2023-04-11T01:10:41.610Z,92710.19
2023-04-11T01:12:13.472Z,92707.50
2023-04-11T01:13:45.035Z,92708.00
2023-04-11T01:15:16.766Z,92713.56
2023-04-11T01:16:50.852Z,92707.13
2023-04-11T01:18:22.720Z,92709.81
2023-04-11T01:19:54.432Z,92710.81
2023-04-11T01:21:27.251Z,92714.56
2023-04-11T01:22:59.269Z,92710.81
2023-04-11T01:24:31.170Z,92704.06
2023-04-11T01:26:02.658Z,92710.50
2023-04-11T01:27:34.669Z,92708.72
2023-04-11T01:29:06.618Z,92709.00
2023-04-11T01:30:38.231Z,92706.91
2023-04-11T01:32:09.859Z,92709.28
2023-04-11T01:33:42.231Z,92703.16
2023-04-11T01:35:13.774Z,92703.88
2023-04-11T01:36:45.714Z,92695.63
2023-04-11T01:38:17.469Z,92699.09
2023-04-11T01:39:49.153Z,92703.09
2023-04-11T01:41:21.191Z,92699.91
2023-04-11T01:42:53.310Z,92696.72
2023-04-11T01:44:24.963Z,92698.59
2023-04-11T01:45:56.522Z,92699.69
2023-04-11T01:47:28.154Z,92703.44
2023-04-11T01:49:01.245Z,92691.66
2023-04-11T01:50:33.776Z,92697.00
2023-04-11T01:52:05.427Z,92689.50
2023-04-11T01:53:37.054Z,92694.25
2023-04-11T01:55:08.773Z,92696.66
2023-04-11T01:56:40.541Z,92688.41
2023-04-11T01:58:12.606Z,92696.72
2023-04-11T01:59:44.266Z,92687.41
2023-04-11T02:01:19.675Z,92689.56
2023-04-11T02:02:51.522Z,92688.78
2023-04-11T02:04:23.518Z,92690.06
2023-04-11T02:05:55.347Z,92694.34
2023-04-11T02:07:27.645Z,92695.94
2023-04-11T02:08:59.333Z,92691.38
2023-04-11T02:10:30.944Z,92692.16
2023-04-11T02:12:02.658Z,92683.06
2023-04-11T02:13:35.374Z,92687.63
2023-04-11T02:15:08.938Z,92682.56
2023-04-11T02:16:54.242Z,92686.81
2023-04-11T02:18:26.206Z,92688.19
2023-04-11T02:19:58.267Z,92688.97
2023-04-11T02:21:30.018Z,92692.44
2023-04-11T02:23:04.726Z,92686.31
2023-04-11T02:24:36.284Z,92687.41
2023-04-11T02:26:07.942Z,92686.81
2023-04-11T02:27:39.494Z,92687.91
2023-04-11T02:29:11.151Z,92690.56
2023-04-11T02:30:43.286Z,92687.91
2023-04-11T02:32:15.404Z,92688.19
2023-04-11T02:33:47.243Z,92681.25
2023-04-11T02:35:19.521Z,92679.38
2023-04-11T02:36:51.453Z,92675.31
2023-04-11T02:38:23.046Z,92676.63
2023-04-11T02:39:55.452Z,92674.47
2023-04-11T02:41:27.613Z,92672.88
2023-04-11T02:43:02.244Z,92679.59
2023-04-11T02:44:34.208Z,92681.19
2023-04-11T02:46:12.687Z,92684.44
2023-04-11T02:47:45.503Z,92686.81
2023-04-11T02:49:17.157Z,92679.88
2023-04-11T02:50:48.909Z,92673.94
2023-04-11T02:52:20.904Z,92676.63
2023-04-11T02:53:52.710Z,92678.00
2023-04-11T02:55:24.477Z,92677.72
2023-04-11T02:56:59.054Z,92672.16
2023-04-11T02:58:30.764Z,92676.19
2023-04-11T03:00:02.984Z,92670.28
2023-04-11T03:01:34.908Z,92670.78
2023-04-11T03:03:10.310Z,92668.69
2023-04-11T03:04:42.797Z,92674.03
2023-04-11T03:06:21.788Z,92672.75
2023-04-11T03:07:53.501Z,92672.53
2023-04-11T03:09:24.998Z,92671.19
2023-04-11T03:10:56.627Z,92667.72
2023-04-11T03:12:28.281Z,92673.66
2023-04-11T03:14:00.073Z,92664.56
2023-04-11T03:15:32.674Z,92669.91
2023-04-11T03:17:04.278Z,92665.94
2023-04-11T03:18:36.209Z,92670.19
2023-04-11T03:20:08.487Z,92665.72
2023-04-11T03:21:40.350Z,92665.72
2023-04-11T03:23:12.064Z,92666.03
2023-04-11T03:24:43.872Z,92662.84
2023-04-11T03:26:16.065Z,92661.53
2023-04-11T03:27:47.610Z,92655.09
2023-04-11T03:29:19.324Z,92662.25
2023-04-11T03:30:51.149Z,92660.69
2023-04-11T03:32:22.795Z,92658.22
2023-04-11T03:33:54.522Z,92655.91
2023-04-11T03:35:28.787Z,92664.50
2023-04-11T03:37:00.555Z,92670.16
2023-04-11T03:38:32.231Z,92669.72
2023-04-11T03:40:04.771Z,92664.47
2023-04-11T03:41:36.421Z,92665.84
2023-04-11T03:43:08.050Z,92673.34
2023-04-11T03:44:39.659Z,92669.59
2023-04-11T03:46:11.352Z,92666.63
2023-04-11T03:47:43.340Z,92671.88
2023-04-11T03:49:14.977Z,92666.84
2023-04-11T03:50:48.976Z,92666.53
2023-04-11T03:52:21.007Z,92663.84
2023-04-11T03:53:52.813Z,92668.91
2023-04-11T03:55:26.274Z,92665.75
2023-04-11T03:56:58.277Z,92673.56
2023-04-11T03:58:30.376Z,92663.44
2023-04-11T04:00:02.385Z,92670.66
2023-04-11T04:01:34.160Z,92666.41
2023-04-11T04:03:07.320Z,92667.56
2023-04-11T04:04:40.507Z,92659.91
2023-04-11T04:06:12.403Z,92660.69
2023-04-11T04:07:44.113Z,92665.25
2023-04-11T04:09:15.776Z,92662.09
2023-04-11T04:10:48.466Z,92672.19
2023-04-11T04:12:23.137Z,92659.84
2023-04-11T04:13:55.694Z,92663.59
2023-04-11T04:15:27.974Z,92664.16
2023-04-11T04:16:59.728Z,92668.22
2023-04-11T04:18:31.615Z,92669.59
2023-04-11T04:20:04.480Z,92662.66
2023-04-11T04:21:38.235Z,92663.66
2023-04-11T04:23:14.189Z,92661.00
2023-04-11T04:24:49.042Z,92667.44
2023-04-11T04:26:25.297Z,92654.84
2023-04-11T04:27:58.392Z,92658.31
2023-04-11T04:29:38.216Z,92661.78
2023-04-11T04:31:13.071Z,92664.44
2023-04-11T04:32:47.889Z,92663.38
2023-04-11T04:34:22.037Z,92666.03
2023-04-11T04:35:58.280Z,92666.56
2023-04-11T04:37:30.479Z,92656.59
2023-04-11T04:39:02.387Z,92670.16
2023-04-11T04:40:38.142Z,92661.34
2023-04-11T04:42:10.084Z,92667.78
2023-04-11T04:43:44.819Z,92663.22
2023-04-11T04:45:16.421Z,92665.09
2023-04-11T04:46:50.600Z,92669.34
2023-04-11T04:48:25.778Z,92667.19
2023-04-11T04:49:57.854Z,92661.28
2023-04-11T04:51:30.348Z,92667.19
2023-04-11T04:53:02.264Z,92667.19
2023-04-11T04:54:34.018Z,92665.59
2023-04-11T04:56:06.151Z,92657.59
2023-04-11T04:57:37.777Z,92665.03
2023-04-11T04:59:14.732Z,92661.78
2023-04-11T05:00:46.679Z,92661.97
2023-04-11T05:02:18.689Z,92668.06
2023-04-11T05:03:51.203Z,92663.50
2023-04-11T05:05:26.716Z,92673.91
2023-04-11T05:06:59.162Z,92671.25
2023-04-11T05:08:30.912Z,92671.25
2023-04-11T05:10:03.000Z,92666.97
2023-04-11T05:11:34.913Z,92673.91
2023-04-11T05:13:06.429Z,92670.16
2023-04-11T05:14:38.088Z,92664.50
2023-04-11T05:16:09.972Z,92657.59
2023-04-11T05:17:42.890Z,92660.44
2023-04-11T05:19:14.540Z,92660.38
2023-04-11T05:20:46.337Z,92656.03
2023-04-11T05:22:17.878Z,92661.19
2023-04-11T05:23:49.471Z,92661.19
2023-04-11T05:25:21.280Z,92666.94
2023-04-11T05:26:52.858Z,92664.50
2023-04-11T05:28:24.591Z,92665.50
2023-04-11T05:29:56.295Z,92664.91
2023-04-11T05:31:27.945Z,92667.81
2023-04-11T05:32:59.731Z,92671.78
2023-04-11T05:34:31.708Z,92672.59
2023-04-11T05:36:03.446Z,92668.81
2023-04-11T05:37:35.137Z,92671.78
2023-04-11T05:39:06.805Z,92656.53
2023-04-11T05:40:40.365Z,92665.25
2023-04-11T05:42:11.964Z,92659.31
2023-04-11T05:43:43.580Z,92661.31
2023-04-11T05:45:16.322Z,92664.88
2023-04-11T05:46:47.930Z,92665.97
2023-04-11T05:48:24.226Z,92663.81
2023-04-11T05:49:55.857Z,92661.94
2023-04-11T05:51:27.780Z,92667.19
2023-04-11T05:52:59.417Z,92658.09
2023-04-11T05:54:32.021Z,92661.94
2023-04-11T05:56:03.708Z,92657.16
2023-04-11T05:57:35.814Z,92651.44
2023-04-11T05:59:07.378Z,92656.50
2023-04-11T06:00:38.928Z,92657.19
2023-04-11T06:02:11.085Z,92656.59
2023-04-11T06:03:43.070Z,92653.84
2023-04-11T06:05:16.792Z,92655.09
2023-04-11T06:06:48.447Z,92652.72
2023-04-11T06:08:20.072Z,92649.56
2023-04-11T06:09:51.924Z,92644.31
2023-04-11T06:11:25.766Z,92647.28
2023-04-11T06:12:57.434Z,92641.34
2023-04-11T06:14:28.998Z,92641.53
2023-04-11T06:16:01.221Z,92645.31
2023-04-11T06:17:32.881Z,92639.75
2023-04-11T06:19:04.849Z,92649.94
2023-04-11T06:20:36.429Z,92643.22
2023-04-11T06:22:07.994Z,92641.34
2023-04-11T06:23:39.608Z,92648.50
2023-04-11T06:25:11.185Z,92641.94
2023-04-11T06:26:43.281Z,92640.75
2023-04-11T06:28:14.922Z,92632.72
2023-04-11T06:29:46.521Z,92634.22
2023-04-11T06:31:18.399Z,92630.94
2023-04-11T06:32:50.191Z,92631.41
2023-04-11T06:34:21.984Z,92637.19
2023-04-11T06:35:53.623Z,92629.81
2023-04-11T06:37:25.316Z,92631.31
2023-04-11T06:38:56.960Z,92630.81
2023-04-11T06:40:28.859Z,92626.31
2023-04-11T06:42:03.963Z,92626.69
2023-04-11T06:43:35.806Z,92616.78
2023-04-11T06:45:07.775Z,92630.38
2023-04-11T06:46:39.642Z,92630.69
2023-04-11T06:48:13.073Z,92628.22
2023-04-11T06:49:44.847Z,92634.84
2023-04-11T06:51:16.452Z,92623.06
2023-04-11T06:52:48.088Z,92637.41
2023-04-11T06:54:22.087Z,92630.88
2023-04-11T06:55:54.182Z,92632.63
2023-04-11T06:57:29.111Z,92630.50
2023-04-11T06:59:01.530Z,92633.16
2023-04-11T07:00:33.110Z,92631.94
2023-04-11T07:02:04.856Z,92629.56
2023-04-11T07:03:37.063Z,92632.34
2023-04-11T07:05:12.262Z,92630.47
2023-04-11T07:06:46.821Z,92632.66
2023-04-11T07:08:18.487Z,92632.53
2023-04-11T07:09:50.227Z,92637.81
2023-04-11T07:11:22.380Z,92634.94
2023-04-11T07:12:54.077Z,92623.03
2023-04-11T07:14:25.950Z,92630.59
2023-04-11T07:15:57.613Z,92624.16
2023-04-11T07:17:29.236Z,92629.50
2023-04-11T07:19:00.892Z,92628.50
2023-04-11T07:20:33.075Z,92631.19
2023-04-11T07:22:07.865Z,92635.75
2023-04-11T07:23:39.640Z,92629.91
2023-04-11T07:25:11.866Z,92628.81
2023-04-11T07:26:43.476Z,92632.50
2023-04-11T07:28:15.626Z,92634.53
2023-04-11T07:29:47.217Z,92631.56
2023-04-11T07:31:21.756Z,92626.50
2023-04-11T07:32:53.661Z,92634.88
2023-04-11T07:34:25.372Z,92637.66
2023-04-11T07:35:57.254Z,92629.41
2023-04-11T07:37:30.315Z,92624.53
2023-04-11T07:39:02.315Z,92627.28
2023-04-11T07:40:33.940Z,92626.59
2023-04-11T07:42:05.886Z,92624.06
2023-04-11T07:43:37.506Z,92624.47
2023-04-11T07:45:09.293Z,92629.97
2023-04-11T07:46:41.361Z,92622.28
2023-04-11T07:48:12.912Z,92617.38
2023-04-11T07:49:44.619Z,92618.09
2023-04-11T07:51:17.257Z,92613.38
2023-04-11T07:52:48.810Z,92616.25
2023-04-11T07:54:20.470Z,92611.06
2023-04-11T07:55:52.044Z,92614.84
2023-04-11T07:57:23.577Z,92607.28
2023-04-11T07:58:55.241Z,92608.25
2023-04-11T08:00:30.950Z,92609.53
2023-04-11T08:02:03.309Z,92605.44
2023-04-11T08:03:35.324Z,92608.00
2023-04-11T08:05:10.186Z,92603.41
2023-04-11T08:06:42.057Z,92604.84
2023-04-11T08:08:18.068Z,92605.31
2023-04-11T08:09:52.935Z,92602.81
2023-04-11T08:11:24.748Z,92598.72
2023-04-11T08:12:59.516Z,92607.25
2023-04-11T08:14:31.121Z,92596.94
2023-04-11T08:16:12.227Z,92595.06
2023-04-11T08:17:44.722Z,92592.25
2023-04-11T08:19:17.279Z,92592.25
2023-04-11T08:20:49.541Z,92596.53
2023-04-11T08:22:21.278Z,92587.84
2023-04-11T08:23:52.822Z,92586.31
2023-04-11T08:25:24.684Z,92583.78
2023-04-11T08:26:56.374Z,92590.44
2023-04-11T08:28:28.075Z,92582.88
2023-04-11T08:30:00.207Z,92584.00
2023-04-11T08:31:32.518Z,92577.03
2023-04-11T08:33:04.342Z,92572.66
2023-04-11T08:34:35.891Z,92576.31
2023-04-11T08:36:10.945Z,92568.09
2023-04-11T08:37:44.471Z,92566.38
2023-04-11T08:39:16.321Z,92562.13
2023-04-11T08:40:48.010Z,92563.69
2023-04-11T08:42:33.002Z,92554.72
2023-04-11T08:44:05.239Z,92553.94
2023-04-11T08:45:36.866Z,92549.97
2023-04-11T08:47:08.498Z,92542.06
2023-04-11T08:48:40.129Z,92550.13
2023-04-11T08:50:11.991Z,92548.88
2023-04-11T08:51:44.245Z,92549.69
2023-04-11T08:53:16.268Z,92539.91
2023-04-11T08:54:48.110Z,92552.72
2023-04-11T08:56:19.856Z,92548.78
2023-04-11T08:57:53.754Z,92543.25
2023-04-11T08:59:25.721Z,92540.63
2023-04-11T09:00:57.404Z,92534.72
2023-04-11T09:02:29.002Z,92532.81
2023-04-11T09:04:02.622Z,92529.97
2023-04-11T09:05:35.264Z,92521.81
2023-04-11T09:07:08.151Z,92519.09
2023-04-11T09:08:42.966Z,92507.81
2023-04-11T09:10:21.326Z,92513.34
2023-04-11T09:11:54.193Z,92506.19
2023-04-11T09:13:26.276Z,92505.03
2023-04-11T09:14:58.508Z,92514.66
2023-04-11T09:16:30.397Z,92511.78
2023-04-11T09:18:03.009Z,92524.28
2023-04-11T09:19:35.217Z,92507.31
2023-04-11T09:21:07.920Z,92510.09
2023-04-11T09:22:41.380Z,92513.13
2023-04-11T09:24:15.939Z,92506.63
2023-04-11T09:25:48.961Z,92506.59
2023-04-11T09:27:25.308Z,92503.06
2023-04-11T09:28:57.186Z,92496.59
2023-04-11T09:30:29.445Z,92497.75
2023-04-11T09:32:01.227Z,92493.50
2023-04-11T09:33:32.810Z,92486.97
2023-04-11T09:35:10.164Z,92488.44
2023-04-11T09:36:42.575Z,92493.84
2023-04-11T09:38:14.754Z,92490.22
2023-04-11T09:39:46.783Z,92495.13
2023-04-11T09:41:29.638Z,92492.91
2023-04-11T09:43:02.257Z,92494.38
2023-04-11T09:44:37.891Z,92495.00
2023-04-11T09:46:10.434Z,92489.97
2023-04-11T09:47:44.576Z,92487.88
2023-04-11T09:49:16.509Z,92480.31
2023-04-11T09:50:48.630Z,92475.19
2023-04-11T09:52:20.216Z,92460.84
2023-04-11T09:53:54.795Z,92466.53
2023-04-11T09:55:26.799Z,92458.03
2023-04-11T09:56:58.455Z,92452.53
2023-04-11T09:58:31.607Z,92464.78
2023-04-11T10:00:16.365Z,92456.09
2023-04-11T10:01:49.538Z,92451.16
2023-04-11T10:03:23.980Z,92458.03
2023-04-11T10:05:00.370Z,92459.81
2023-04-11T10:06:34.451Z,92449.91
2023-04-11T10:08:08.658Z,92446.88
2023-04-11T10:09:41.266Z,92441.56
2023-04-11T10:11:14.759Z,92435.06
2023-04-11T10:12:49.416Z,92437.13
2023-04-11T10:14:36.311Z,92437.44
2023-04-11T10:16:11.540Z,92434.63
2023-04-11T10:17:43.430Z,92430.88
2023-04-11T10:19:18.345Z,92432.56
2023-04-11T10:20:50.610Z,92435.28
2023-04-11T10:22:40.722Z,92437.78
2023-04-11T10:24:17.392Z,92430.66
2023-04-11T10:25:51.062Z,92419.97
2023-04-11T10:27:45.544Z,92418.19
2023-04-11T10:29:29.817Z,92418.41
2023-04-11T10:31:03.440Z,92416.16
2023-04-11T10:32:36.349Z,92411.31
2023-04-11T10:34:11.757Z,92411.84
2023-04-11T10:35:59.504Z,92407.56
2023-04-11T10:37:34.423Z,92405.22
2023-04-11T10:39:06.083Z,92405.56
2023-04-11T10:40:37.673Z,92399.47
2023-04-11T10:42:28.069Z,92398.78
2023-04-11T10:44:14.860Z,92397.03
2023-04-11T10:45:46.843Z,92402.19
2023-04-11T10:47:18.811Z,92401.31
2023-04-11T10:48:57.069Z,92394.22
2023-04-11T10:50:31.930Z,92393.91
2023-04-11T10:52:22.904Z,92398.06
2023-04-11T10:53:56.022Z,92390.28
2023-04-11T10:55:29.001Z,92391.41
2023-04-11T10:57:00.789Z,92383.75
2023-04-11T10:58:37.203Z,92380.06
2023-04-11T11:00:14.106Z,92383.31
2023-04-11T11:01:52.882Z,92378.22
2023-04-11T11:03:25.840Z,92381.38
2023-04-11T11:04:57.874Z,92376.44
2023-04-11T11:06:29.922Z,92370.34
2023-04-11T11:08:01.660Z,92374.19
2023-04-11T11:09:33.870Z,92380.56
2023-04-11T11:11:07.022Z,92383.81
2023-04-11T11:12:38.804Z,92388.34
2023-04-11T11:14:10.563Z,92388.22
2023-04-11T11:15:47.659Z,92372.81
2023-04-11T11:17:19.812Z,92381.03
2023-04-11T11:18:52.305Z,92377.66
2023-04-11T11:20:24.030Z,92378.47
2023-04-11T11:21:57.047Z,92380.94
2023-04-11T11:23:28.687Z,92376.09
2023-04-11T11:25:07.629Z,92375.44
2023-04-11T11:26:42.658Z,92378.47
2023-04-11T11:28:14.367Z,92376.91
2023-04-11T11:29:46.510Z,92383.09
2023-04-11T11:31:18.227Z,92377.34
2023-04-11T11:32:49.982Z,92380.38
2023-04-11T11:34:29.194Z,92371.03
2023-04-11T11:36:00.981Z,92368.78
2023-04-11T11:37:32.616Z,92368.53
2023-04-11T11:39:05.921Z,92372.69
2023-04-11T11:40:37.685Z,92362.13
2023-04-11T11:42:10.312Z,92366.00
2023-04-11T11:43:42.387Z,92364.84
2023-04-11T11:45:16.939Z,92360.63
2023-04-11T11:47:04.752Z,92351.84
2023-04-11T11:48:36.767Z,92348.63
2023-04-11T11:50:08.666Z,92347.94
2023-04-11T11:51:41.175Z,92347.06
2023-04-11T11:53:17.899Z,92343.00
2023-04-11T11:54:55.837Z,92355.09
2023-04-11T11:56:27.592Z,92344.59
2023-04-11T11:57:59.846Z,92342.16
2023-04-11T11:59:32.004Z,92342.84
2023-04-11T12:01:03.753Z,92335.84
2023-04-11T12:02:36.416Z,92341.25
2023-04-11T12:04:11.287Z,92336.31
2023-04-11T12:05:44.380Z,92335.00
2023-04-11T12:07:20.573Z,92342.72
2023-04-11T12:08:54.236Z,92338.91
2023-04-11T12:10:28.056Z,92339.69
2023-04-11T12:11:59.810Z,92328.44
2023-04-11T12:13:38.725Z,92334.78
2023-04-11T12:15:13.891Z,92327.59
2023-04-11T12:16:45.765Z,92324.22
2023-04-11T12:18:22.050Z,92318.88
2023-04-11T12:19:55.377Z,92323.50
2023-04-11T12:21:27.150Z,92313.47
2023-04-11T12:23:08.593Z,92318.09
2023-04-11T12:24:45.992Z,92316.97
2023-04-11T12:26:26.625Z,92319.50
2023-04-11T12:27:58.258Z,92312.41
2023-04-11T12:29:30.026Z,92310.13
2023-04-11T12:31:09.156Z,92311.50
2023-04-11T12:32:40.916Z,92305.78
2023-04-11T12:34:13.609Z,92305.56
2023-04-11T12:35:45.436Z,92305.84
2023-04-11T12:37:17.377Z,92305.88
2023-04-11T12:38:49.027Z,92298.31
2023-04-11T12:40:21.051Z,92297.91
2023-04-11T12:41:52.938Z,92290.47
2023-04-11T12:43:24.637Z,92291.91
2023-04-11T12:44:59.019Z,92294.59
2023-04-11T12:46:31.010Z,92284.88
2023-04-11T12:48:02.822Z,92287.09
2023-04-11T12:49:34.625Z,92286.25
2023-04-11T12:51:06.607Z,92285.78
2023-04-11T12:52:38.721Z,92291.34
2023-04-11T12:54:10.665Z,92280.84
2023-04-11T12:55:44.763Z,92289.38
2023-04-11T12:57:17.255Z,92274.75
2023-04-11T12:58:49.007Z,92283.53
2023-04-11T13:00:21.491Z,92276.38
2023-04-11T13:01:54.003Z,92278.78
2023-04-11T13:03:25.990Z,92273.97
2023-04-11T13:05:00.085Z,92277.13
2023-04-11T13:06:32.384Z,92275.63
2023-04-11T13:08:04.300Z,92273.47
2023-04-11T13:09:36.422Z,92278.09
2023-04-11T13:11:08.368Z,92275.22
2023-04-11T13:12:41.965Z,92271.63
2023-04-11T13:14:14.836Z,92273.69
2023-04-11T13:15:51.386Z,92269.31
2023-04-11T13:17:23.384Z,92274.19
2023-04-11T13:18:55.648Z,92269.00
2023-04-11T13:20:29.261Z,92268.00
2023-04-11T13:22:07.450Z,92264.63
2023-04-11T13:23:39.645Z,92270.19
2023-04-11T13:25:13.127Z,92255.47
2023-04-11T13:26:45.738Z,92253.16
2023-04-11T13:28:17.506Z,92252.09
2023-04-11T13:29:52.349Z,92252.53
2023-04-11T13:31:49.396Z,92241.66
2023-04-11T13:33:23.788Z,92253.69
2023-04-11T13:34:55.735Z,92246.13
2023-04-11T13:36:39.658Z,92248.31
2023-04-11T13:38:12.825Z,92267.19
2023-04-11T13:39:45.056Z,92261.69
2023-04-11T13:41:16.929Z,92257.84
2023-04-11T13:42:53.177Z,92263.16
2023-04-11T13:44:25.219Z,92251.66
2023-04-11T13:45:57.243Z,92245.38
2023-04-11T13:47:29.079Z,92237.28
2023-04-11T13:51:07.012Z,92246.50
2023-04-11T13:52:39.847Z,92241.25
2023-04-11T13:54:14.710Z,92247.94
2023-04-11T13:55:55.286Z,92243.44
2023-04-11T13:57:33.434Z,92244.03
2023-04-11T13:59:05.350Z,92247.22
2023-04-11T14:00:40.248Z,92244.53
2023-04-11T14:02:12.239Z,92242.69
2023-04-11T14:03:51.335Z,92233.47
2023-04-11T14:05:25.484Z,92242.38
2023-04-11T14:06:57.760Z,92238.09
2023-04-11T14:08:33.464Z,92238.22
2023-04-11T14:10:06.400Z,92237.00
2023-04-11T14:11:42.803Z,92239.06
2023-04-11T14:13:14.520Z,92242.13
2023-04-11T14:14:46.589Z,92242.00
2023-04-11T14:16:21.819Z,92234.81
2023-04-11T14:19:44.956Z,92238.88
2023-04-11T14:21:17.345Z,92239.88
2023-04-11T14:22:51.364Z,92231.75
2023-04-11T14:24:23.483Z,92234.59
2023-04-11T14:25:55.339Z,92233.59
2023-04-11T14:27:30.269Z,92228.06
2023-04-11T14:30:08.577Z,92238.66
2023-04-11T14:31:04.383Z,92228.06
2023-04-11T14:32:40.955Z,92242.56
2023-04-11T14:34:13.928Z,92231.44
2023-04-11T14:35:48.701Z,92242.69
2023-04-11T14:37:23.375Z,92235.50
2023-04-11T14:40:52.239Z,92226.97
2023-04-11T14:42:37.068Z,92226.31
2023-04-11T14:46:06.296Z,92217.97
2023-04-11T14:49:44.732Z,92222.22
2023-04-11T14:51:29.926Z,92222.13
2023-04-11T14:53:04.604Z,92217.53
2023-04-11T14:55:05.560Z,92222.47
2023-04-11T14:58:56.055Z,92228.53
2023-04-11T15:00:31.166Z,92219.78
2023-04-11T15:02:06.030Z,92223.13
2023-04-11T15:03:40.286Z,92227.63
2023-04-11T15:05:26.625Z,92222.59
2023-04-11T15:06:59.976Z,92232.78
2023-04-11T15:08:45.651Z,92229.41
2023-04-11T15:10:27.087Z,92220.75
2023-04-11T15:12:08.164Z,92223.91
2023-04-11T15:13:40.184Z,92232.66
2023-04-11T15:15:15.216Z,92233.78
2023-04-11T15:17:12.302Z,92228.50
2023-04-11T15:18:59.750Z,92237.47
2023-04-11T15:20:31.807Z,92242.28
2023-04-11T15:23:50.753Z,92231.50
2023-04-11T15:25:26.297Z,92224.94
2023-04-11T15:26:57.903Z,92238.91
2023-04-11T15:28:49.881Z,92230.69
2023-04-11T15:30:22.080Z,92230.94
2023-04-11T15:31:54.459Z,92226.84
2023-04-11T15:33:26.939Z,92231.66
2023-04-11T15:35:02.664Z,92231.34
2023-04-11T15:36:51.718Z,92229.94
2023-04-11T15:38:23.704Z,92230.09
2023-04-11T15:39:58.871Z,92229.44
2023-04-11T15:41:32.259Z,92229.69
2023-04-11T15:43:07.519Z,92233.53
2023-04-11T15:44:39.159Z,92227.72
2023-04-11T15:46:11.779Z,92230.56
2023-04-11T15:47:43.644Z,92231.03
2023-04-11T15:49:17.687Z,92230.34
2023-04-11T15:50:49.426Z,92230.81
2023-04-11T15:52:23.963Z,92232.28
2023-04-11T15:53:56.715Z,92220.25
2023-04-11T15:55:29.278Z,92225.50
2023-04-11T15:57:02.797Z,92224.13
2023-04-11T15:58:34.421Z,92230.03
2023-04-11T16:00:09.682Z,92234.06
2023-04-11T16:01:42.193Z,92230.94
2023-04-11T16:03:14.440Z,92231.38
2023-04-11T16:04:47.898Z,92231.72
2023-04-11T16:06:20.693Z,92229.81
2023-04-11T16:07:52.512Z,92231.38
2023-04-11T16:09:24.224Z,92224.88
2023-04-11T16:10:55.998Z,92231.50
2023-04-11T16:12:27.767Z,92232.41
2023-04-11T16:14:00.007Z,92226.88
2023-04-11T16:15:33.184Z,92229.69
2023-04-11T16:17:04.835Z,92227.63
2023-04-11T16:18:36.662Z,92228.97
2023-04-11T16:20:12.042Z,92226.81
2023-04-11T16:21:44.386Z,92227.00
2023-04-11T16:23:16.294Z,92230.69
2023-04-11T16:24:47.879Z,92230.25
2023-04-11T16:26:20.549Z,92234.06
2023-04-11T16:27:52.242Z,92228.66
2023-04-11T16:29:25.456Z,92232.94
2023-04-11T16:30:58.365Z,92236.41
2023-04-11T16:32:30.288Z,92241.66
2023-04-11T16:34:02.078Z,92238.97
2023-04-11T16:35:34.434Z,92239.31
2023-04-11T16:37:06.526Z,92240.09
2023-04-11T16:38:38.944Z,92233.78
2023-04-11T16:40:13.986Z,92238.69
2023-04-11T16:41:45.947Z,92233.66
2023-04-11T16:43:17.855Z,92234.63
2023-04-11T16:44:49.494Z,92237.34
2023-04-11T16:46:21.129Z,92231.94
2023-04-11T16:47:53.084Z,92235.75
2023-04-11T16:49:24.738Z,92230.03
2023-04-11T16:50:56.356Z,92226.09
2023-04-11T16:52:28.282Z,92229.13
2023-04-11T16:53:59.967Z,92222.03
2023-04-11T16:55:31.777Z,92219.34
2023-04-11T16:57:03.780Z,92226.31
2023-04-11T16:58:35.729Z,92228.53
2023-04-11T17:00:19.972Z,92229.19
2023-04-11T17:01:52.202Z,92229.72
2023-04-11T17:03:24.053Z,92232.91
2023-04-11T17:04:55.952Z,92235.03
2023-04-11T17:06:28.492Z,92231.72
2023-04-11T17:08:00.218Z,92232.72
2023-04-11T17:09:32.040Z,92232.09
2023-04-11T17:11:05.979Z,92240.03
2023-04-11T17:12:37.678Z,92239.91
2023-04-11T17:14:09.516Z,92242.91
2023-04-11T17:15:41.379Z,92243.88
2023-04-11T17:17:13.310Z,92237.59
2023-04-11T17:18:44.999Z,92238.22
2023-04-11T17:20:16.988Z,92243.78
2023-04-11T17:21:50.387Z,92241.59
2023-04-11T17:23:31.901Z,92246.34
2023-04-11T17:25:12.699Z,92245.53
2023-04-11T17:26:44.608Z,92248.59
2023-04-11T17:28:16.907Z,92250.78
2023-04-11T17:29:48.595Z,92248.28
2023-04-11T17:31:21.056Z,92253.53
2023-04-11T17:32:53.901Z,92249.41
2023-04-11T17:34:25.629Z,92255.13
2023-04-11T17:35:57.329Z,92254.63
2023-04-11T17:37:29.106Z,92253.72
2023-04-11T17:39:01.416Z,92256.72
2023-04-11T17:40:33.073Z,92254.03
2023-04-11T17:42:05.074Z,92252.78
2023-04-11T17:43:36.695Z,92260.03
2023-04-11T17:45:17.779Z,92261.03
2023-04-11T17:46:50.257Z,92263.25
2023-04-11T17:48:23.207Z,92261.66
2023-04-11T17:49:57.053Z,92268.78
2023-04-11T17:51:29.346Z,92268.63
2023-04-11T17:53:01.065Z,92271.63
2023-04-11T17:54:32.924Z,92277.00
2023-04-11T17:56:06.253Z,92276.34
2023-04-11T17:57:38.377Z,92275.09
2023-04-11T17:59:11.727Z,92277.78
2023-04-11T18:00:54.683Z,92279.19
2023-04-11T18:02:28.715Z,92274.94
2023-04-11T18:04:01.816Z,92278.41
2023-04-11T18:05:36.784Z,92277.63
2023-04-11T18:07:08.472Z,92282.19
2023-04-11T18:08:50.345Z,92293.09
2023-04-11T18:10:23.253Z,92286.00
2023-04-11T18:11:55.679Z,92288.00
2023-04-11T18:13:29.007Z,92279.78
2023-04-11T18:15:01.270Z,92287.53
2023-04-11T18:16:33.461Z,92280.59
2023-04-11T18:18:09.842Z,92290.53
2023-04-11T18:19:42.281Z,92286.75
2023-04-11T18:21:14.327Z,92286.88
2023-04-11T18:22:49.384Z,92286.09
2023-04-11T18:24:22.123Z,92288.47
2023-04-11T18:25:53.701Z,92293.84
2023-04-11T18:27:25.715Z,92299.88
2023-04-11T18:28:57.240Z,92294.34
2023-04-11T18:30:32.142Z,92295.91
2023-04-11T18:32:03.984Z,92300.97